Aviation Digital Data Service (ADDS)

Output produced by METARs form (1621 UTC 17 April 2014)
found at http://aviationweather.gov/adds/metars/
 
KERI 171602Z 1716/1812 18012G22KT P6SM BKN250 
     FM172200 18010KT P6SM OVC200